sensor_id;sensor_type;location;lat;lon;timestamp;pressure;altitude;pressure_sealevel;temperature;humidity
66880;BME280;53789;51.392;10.234;2023-04-22T00:00:12;97741.25;;;10.27;64.21
66880;BME280;53789;51.392;10.234;2023-04-22T00:00:32;97743.16;;;10.26;64.43
66880;BME280;53789;51.392;10.234;2023-04-22T00:00:52;97740.41;;;10.26;64.74
66880;BME280;53789;51.392;10.234;2023-04-22T00:01:13;97744.78;;;10.27;63.93
66880;BME280;53789;51.392;10.234;2023-04-22T00:01:33;97744.78;;;10.27;63.96
66880;BME280;53789;51.392;10.234;2023-04-22T00:01:53;97742.03;;;10.27;64.01
66880;BME280;53789;51.392;10.234;2023-04-22T00:02:14;97743.66;;;10.28;63.63
66880;BME280;53789;51.392;10.234;2023-04-22T00:02:34;97754.66;;;10.28;64.31
66880;BME280;53789;51.392;10.234;2023-04-22T00:02:54;97748.34;;;10.28;63.68
66880;BME280;53789;51.392;10.234;2023-04-22T00:03:15;97745.59;;;10.28;64.71
66880;BME280;53789;51.392;10.234;2023-04-22T00:03:35;97747.53;;;10.27;64.56
66880;BME280;53789;51.392;10.234;2023-04-22T00:03:55;97751.09;;;10.28;63.76
66880;BME280;53789;51.392;10.234;2023-04-22T00:04:15;97744.78;;;10.27;64.39
66880;BME280;53789;51.392;10.234;2023-04-22T00:04:36;97751.09;;;10.28;64.33
66880;BME280;53789;51.392;10.234;2023-04-22T00:04:56;97751.91;;;10.28;63.69
66880;BME280;53789;51.392;10.234;2023-04-22T00:05:17;97748.34;;;10.28;64.16
66880;BME280;53789;51.392;10.234;2023-04-22T00:05:37;97754.66;;;10.28;63.54
66880;BME280;53789;51.392;10.234;2023-04-22T00:05:57;97755.47;;;10.29;63.83
66880;BME280;53789;51.392;10.234;2023-04-22T00:06:18;97750.28;;;10.27;63.96
66880;BME280;53789;51.392;10.234;2023-04-22T00:06:38;97751.91;;;10.28;64.74
66880;BME280;53789;51.392;10.234;2023-04-22T00:06:59;97751.91;;;10.28;64.16
66880;BME280;53789;51.392;10.234;2023-04-22T00:07:20;97743.66;;;10.28;63.82
66880;BME280;53789;51.392;10.234;2023-04-22T00:07:40;97756.25;;;10.29;63.73
66880;BME280;53789;51.392;10.234;2023-04-22T00:08:01;97749.97;;;10.29;64.46
66880;BME280;53789;51.392;10.234;2023-04-22T00:08:21;97746.41;;;10.28;64.58
66880;BME280;53789;51.392;10.234;2023-04-22T00:08:41;97749.97;;;10.29;64.51
66880;BME280;53789;51.392;10.234;2023-04-22T00:09:02;97749.97;;;10.29;64.18
66880;BME280;53789;51.392;10.234;2023-04-22T00:09:22;97742.84;;;10.28;64.22
66880;BME280;53789;51.392;10.234;2023-04-22T00:09:43;97748.34;;;10.28;63.82
66880;BME280;53789;51.392;10.234;2023-04-22T00:10:04;97748.34;;;10.28;63.84
66880;BME280;53789;51.392;10.234;2023-04-22T00:10:24;97753.03;;;10.27;64.30
66880;BME280;53789;51.392;10.234;2023-04-22T00:10:44;97748.00;;;10.29;64.59
66880;BME280;53789;51.392;10.234;2023-04-22T00:11:05;97748.00;;;10.29;64.84
66880;BME280;53789;51.392;10.234;2023-04-22T00:11:25;97739.78;;;10.29;63.73
66880;BME280;53789;51.392;10.234;2023-04-22T00:11:45;97743.66;;;10.28;64.03
66880;BME280;53789;51.392;10.234;2023-04-22T00:12:06;97749.97;;;10.29;63.83
66880;BME280;53789;51.392;10.234;2023-04-22T00:12:27;97745.59;;;10.28;64.29
66880;BME280;53789;51.392;10.234;2023-04-22T00:12:47;97746.72;;;10.27;63.94
66880;BME280;53789;51.392;10.234;2023-04-22T00:13:07;97745.91;;;10.26;64.41
66880;BME280;53789;51.392;10.234;2023-04-22T00:13:28;97746.72;;;10.27;64.45
66880;BME280;53789;51.392;10.234;2023-04-22T00:13:48;97746.72;;;10.27;64.11
66880;BME280;53789;51.392;10.234;2023-04-22T00:14:08;97751.41;;;10.26;64.00
66880;BME280;53789;51.392;10.234;2023-04-22T00:14:29;97747.03;;;10.25;63.67
66880;BME280;53789;51.392;10.234;2023-04-22T00:14:49;97748.16;;;10.24;64.33
66880;BME280;53789;51.392;10.234;2023-04-22T00:15:09;97752.53;;;10.25;63.92
66880;BME280;53789;51.392;10.234;2023-04-22T00:15:30;97744.28;;;10.25;64.40
66880;BME280;53789;51.392;10.234;2023-04-22T00:15:50;97743.47;;;10.24;64.09
66880;BME280;53789;51.392;10.234;2023-04-22T00:16:10;97744.59;;;10.23;64.25
66880;BME280;53789;51.392;10.234;2023-04-22T00:16:31;97742.66;;;10.24;64.33
66880;BME280;53789;51.392;10.234;2023-04-22T00:16:51;97740.72;;;10.24;64.17
66880;BME280;53789;51.392;10.234;2023-04-22T00:17:11;97743.78;;;10.23;64.33
66880;BME280;53789;51.392;10.234;2023-04-22T00:17:32;97748.47;;;10.22;64.31
66880;BME280;53789;51.392;10.234;2023-04-22T00:17:52;97746.84;;;10.21;64.31
66880;BME280;53789;51.392;10.234;2023-04-22T00:18:13;97744.91;;;10.22;63.98
66880;BME280;53789;51.392;10.234;2023-04-22T00:18:34;97747.97;;;10.20;63.92
66880;BME280;53789;51.392;10.234;2023-04-22T00:18:54;97747.97;;;10.20;64.63
66880;BME280;53789;51.392;10.234;2023-04-22T00:19:15;97745.53;;;10.19;64.23
66880;BME280;53789;51.392;10.234;2023-04-22T00:19:35;97742.78;;;10.19;63.49
66880;BME280;53789;51.392;10.234;2023-04-22T00:19:55;97743.94;;;10.18;64.46
66880;BME280;53789;51.392;10.234;2023-04-22T00:20:17;97747.50;;;10.18;63.56
66880;BME280;53789;51.392;10.234;2023-04-22T00:20:40;97743.94;;;10.18;64.29
66880;BME280;53789;51.392;10.234;2023-04-22T00:21:01;97739.25;;;10.18;64.73
66880;BME280;53789;51.392;10.234;2023-04-22T00:21:21;97740.38;;;10.17;64.83
66880;BME280;53789;51.392;10.234;2023-04-22T00:21:41;97743.13;;;10.17;64.03
66880;BME280;53789;51.392;10.234;2023-04-22T00:22:02;97739.56;;;10.17;64.68
66880;BME280;53789;51.392;10.234;2023-04-22T00:22:22;97742.31;;;10.17;64.86
66880;BME280;53789;51.392;10.234;2023-04-22T00:22:43;97743.44;;;10.16;63.60
66880;BME280;53789;51.392;10.234;2023-04-22T00:23:03;97748.94;;;10.16;64.77
66880;BME280;53789;51.392;10.234;2023-04-22T00:23:23;97735.19;;;10.16;64.39
66880;BME280;53789;51.392;10.234;2023-04-22T00:23:43;97738.25;;;10.14;64.30
66880;BME280;53789;51.392;10.234;2023-04-22T00:24:04;97739.88;;;10.15;64.03
66880;BME280;53789;51.392;10.234;2023-04-22T00:24:24;97742.94;;;10.14;63.75
66880;BME280;53789;51.392;10.234;2023-04-22T00:24:45;97746.19;;;10.16;64.69
66880;BME280;53789;51.392;10.234;2023-04-22T00:25:05;97739.38;;;10.13;64.04
66880;BME280;53789;51.392;10.234;2023-04-22T00:25:26;97742.13;;;10.13;63.72
66880;BME280;53789;51.392;10.234;2023-04-22T00:25:46;97741.31;;;10.13;65.00
66880;BME280;53789;51.392;10.234;2023-04-22T00:26:06;97734.19;;;10.12;64.54
66880;BME280;53789;51.392;10.234;2023-04-22T00:26:27;97741.31;;;10.13;64.72
66880;BME280;53789;51.392;10.234;2023-04-22T00:26:47;97740.50;;;10.12;64.00
66880;BME280;53789;51.392;10.234;2023-04-22T00:27:07;97740.50;;;10.12;64.07
66880;BME280;53789;51.392;10.234;2023-04-22T00:27:28;97738.09;;;10.11;65.09
66880;BME280;53789;51.392;10.234;2023-04-22T00:27:48;97747.13;;;10.11;64.14
66880;BME280;53789;51.392;10.234;2023-04-22T00:28:08;97740.00;;;10.10;64.20
66880;BME280;53789;51.392;10.234;2023-04-22T00:28:28;97743.91;;;10.09;64.14
66880;BME280;53789;51.392;10.234;2023-04-22T00:28:49;97738.41;;;10.09;64.50
66880;BME280;53789;51.392;10.234;2023-04-22T00:29:09;97734.81;;;10.08;64.42
66880;BME280;53789;51.392;10.234;2023-04-22T00:29:30;97735.97;;;10.07;64.38
66880;BME280;53789;51.392;10.234;2023-04-22T00:29:50;97738.72;;;10.07;64.62
66880;BME280;53789;51.392;10.234;2023-04-22T00:30:11;97735.97;;;10.07;64.83
66880;BME280;53789;51.392;10.234;2023-04-22T00:30:31;97738.19;;;10.05;65.19
66880;BME280;53789;51.392;10.234;2023-04-22T00:30:51;97731.59;;;10.06;64.13
66880;BME280;53789;51.392;10.234;2023-04-22T00:31:12;97736.28;;;10.06;64.14
66880;BME280;53789;51.392;10.234;2023-04-22T00:31:32;97736.59;;;10.04;64.40
66880;BME280;53789;51.392;10.234;2023-04-22T00:31:52;97739.34;;;10.04;64.63
66880;BME280;53789;51.392;10.234;2023-04-22T00:32:12;97737.41;;;10.05;64.98
66880;BME280;53789;51.392;10.234;2023-04-22T00:32:33;97732.22;;;10.03;64.12
66880;BME280;53789;51.392;10.234;2023-04-22T00:32:53;97737.72;;;10.03;64.84
66880;BME280;53789;51.392;10.234;2023-04-22T00:33:13;97734.47;;;10.01;64.86
66880;BME280;53789;51.392;10.234;2023-04-22T00:33:34;97733.34;;;10.02;64.58
66880;BME280;53789;51.392;10.234;2023-04-22T00:33:54;97739.16;;;10.01;64.47
66880;BME280;53789;51.392;10.234;2023-04-22T00:34:14;97732.03;;;10.00;64.41
66880;BME280;53789;51.392;10.234;2023-04-22T00:34:34;97730.44;;;9.99;64.48
66880;BME280;53789;51.392;10.234;2023-04-22T00:34:55;97738.66;;;9.99;64.54
66880;BME280;53789;51.392;10.234;2023-04-22T00:35:15;97732.34;;;9.98;65.05
66880;BME280;53789;51.392;10.234;2023-04-22T00:35:35;97738.97;;;9.97;64.25
66880;BME280;53789;51.392;10.234;2023-04-22T00:35:56;97734.28;;;9.98;65.15
66880;BME280;53789;51.392;10.234;2023-04-22T00:36:16;97741.72;;;9.97;64.30
66880;BME280;53789;51.392;10.234;2023-04-22T00:36:36;97736.56;;;9.96;65.25
66880;BME280;53789;51.392;10.234;2023-04-22T00:36:57;97736.56;;;9.96;65.05
66880;BME280;53789;51.392;10.234;2023-04-22T00:37:17;97738.78;;;9.94;65.05
66880;BME280;53789;51.392;10.234;2023-04-22T00:37:37;97740.41;;;9.95;65.17
66880;BME280;53789;51.392;10.234;2023-04-22T00:37:58;97738.78;;;9.94;65.46
66880;BME280;53789;51.392;10.234;2023-04-22T00:38:18;97740.72;;;9.93;64.46
66880;BME280;53789;51.392;10.234;2023-04-22T00:38:41;97737.19;;;9.93;64.65
66880;BME280;53789;51.392;10.234;2023-04-22T00:39:05;97737.50;;;9.91;65.29
66880;BME280;53789;51.392;10.234;2023-04-22T00:39:25;97747.34;;;9.92;65.02
66880;BME280;53789;51.392;10.234;2023-04-22T00:39:45;97737.50;;;9.91;64.45
66880;BME280;53789;51.392;10.234;2023-04-22T00:40:06;97744.09;;;9.90;65.00
66880;BME280;53789;51.392;10.234;2023-04-22T00:40:27;97746.84;;;9.90;65.42
66880;BME280;53789;51.392;10.234;2023-04-22T00:40:47;97737.31;;;9.87;64.63
66880;BME280;53789;51.392;10.234;2023-04-22T00:41:08;97740.84;;;9.88;64.92
66880;BME280;53789;51.392;10.234;2023-04-22T00:41:29;97736.50;;;9.87;64.98
66880;BME280;53789;51.392;10.234;2023-04-22T00:41:51;97737.63;;;9.86;64.99
66880;BME280;53789;51.392;10.234;2023-04-22T00:42:12;97738.41;;;9.86;65.26
66880;BME280;53789;51.392;10.234;2023-04-22T00:42:33;97739.88;;;9.84;64.52
66880;BME280;53789;51.392;10.234;2023-04-22T00:42:54;97737.13;;;9.84;65.42
66880;BME280;53789;51.392;10.234;2023-04-22T00:43:15;97739.03;;;9.83;65.47
66880;BME280;53789;51.392;10.234;2023-04-22T00:43:36;97730.31;;;9.81;64.77
66880;BME280;53789;51.392;10.234;2023-04-22T00:43:57;97737.75;;;9.81;65.23
66880;BME280;53789;51.392;10.234;2023-04-22T00:44:18;97736.13;;;9.80;64.94
66880;BME280;53789;51.392;10.234;2023-04-22T00:44:39;97738.06;;;9.79;65.58
66880;BME280;53789;51.392;10.234;2023-04-22T00:45:00;97736.44;;;9.78;65.55
66880;BME280;53789;51.392;10.234;2023-04-22T00:45:21;97735.63;;;9.78;65.01
66880;BME280;53789;51.392;10.234;2023-04-22T00:45:42;97737.88;;;9.76;65.60
66880;BME280;53789;51.392;10.234;2023-04-22T00:46:03;97736.75;;;9.77;65.07
66880;BME280;53789;51.392;10.234;2023-04-22T00:46:24;97740.63;;;9.76;65.91
66880;BME280;53789;51.392;10.234;2023-04-22T00:46:44;97735.94;;;9.76;65.73
66880;BME280;53789;51.392;10.234;2023-04-22T00:47:05;97734.31;;;9.75;65.21
66880;BME280;53789;51.392;10.234;2023-04-22T00:47:26;97739.81;;;9.75;65.70
66880;BME280;53789;51.392;10.234;2023-04-22T00:47:47;97740.13;;;9.74;65.69
66880;BME280;53789;51.392;10.234;2023-04-22T00:48:08;97737.38;;;9.74;65.09
66880;BME280;53789;51.392;10.234;2023-04-22T00:48:28;97739.31;;;9.73;66.25
66880;BME280;53789;51.392;10.234;2023-04-22T00:48:49;97740.13;;;9.74;65.71
66880;BME280;53789;51.392;10.234;2023-04-22T00:49:09;97743.19;;;9.72;65.51
66880;BME280;53789;51.392;10.234;2023-04-22T00:49:31;97736.88;;;9.71;65.83
66880;BME280;53789;51.392;10.234;2023-04-22T00:49:53;97742.38;;;9.71;65.83
66880;BME280;53789;51.392;10.234;2023-04-22T00:50:14;97739.94;;;9.70;65.47
66880;BME280;53789;51.392;10.234;2023-04-22T00:50:34;97731.22;;;9.68;65.54
66880;BME280;53789;51.392;10.234;2023-04-22T00:50:54;97742.19;;;9.68;65.48
66880;BME280;53789;51.392;10.234;2023-04-22T00:51:15;97739.44;;;9.68;65.17
66880;BME280;53789;51.392;10.234;2023-04-22T00:51:35;97739.44;;;9.68;65.08
66880;BME280;53789;51.392;10.234;2023-04-22T00:51:55;97739.75;;;9.66;66.19
66880;BME280;53789;51.392;10.234;2023-04-22T00:52:16;97748.00;;;9.66;64.94
66880;BME280;53789;51.392;10.234;2023-04-22T00:52:36;97743.63;;;9.65;65.58
66880;BME280;53789;51.392;10.234;2023-04-22T00:52:56;97743.63;;;9.65;66.34
66880;BME280;53789;51.392;10.234;2023-04-22T00:53:17;97743.63;;;9.65;65.62
66880;BME280;53789;51.392;10.234;2023-04-22T00:53:37;97749.91;;;9.66;66.48
66880;BME280;53789;51.392;10.234;2023-04-22T00:53:58;97745.56;;;9.65;66.23
66880;BME280;53789;51.392;10.234;2023-04-22T00:54:18;97739.25;;;9.64;65.70
66880;BME280;53789;51.392;10.234;2023-04-22T00:54:39;97744.72;;;9.64;65.64
66880;BME280;53789;51.392;10.234;2023-04-22T00:54:59;97740.06;;;9.65;65.69
66880;BME280;53789;51.392;10.234;2023-04-22T00:55:20;97742.81;;;9.65;65.86
66880;BME280;53789;51.392;10.234;2023-04-22T00:55:40;97746.69;;;9.64;66.50
66880;BME280;53789;51.392;10.234;2023-04-22T00:56:01;97735.69;;;9.64;65.59
66880;BME280;53789;51.392;10.234;2023-04-22T00:56:24;97745.88;;;9.63;65.92
66880;BME280;53789;51.392;10.234;2023-04-22T00:56:45;97745.88;;;9.63;65.86
66880;BME280;53789;51.392;10.234;2023-04-22T00:57:05;97739.56;;;9.63;65.57
66880;BME280;53789;51.392;10.234;2023-04-22T00:57:29;97736.00;;;9.62;65.58
66880;BME280;53789;51.392;10.234;2023-04-22T00:57:51;97742.63;;;9.61;65.87
66880;BME280;53789;51.392;10.234;2023-04-22T00:58:13;97742.63;;;9.61;66.13
66880;BME280;53789;51.392;10.234;2023-04-22T00:58:34;97740.69;;;9.62;65.96
66880;BME280;53789;51.392;10.234;2023-04-22T00:58:55;97739.88;;;9.61;65.30
66880;BME280;53789;51.392;10.234;2023-04-22T00:59:16;97739.06;;;9.61;66.17
66880;BME280;53789;51.392;10.234;2023-04-22T00:59:37;97743.44;;;9.62;65.96
66880;BME280;53789;51.392;10.234;2023-04-22T00:59:58;97744.25;;;9.62;65.67
66880;BME280;53789;51.392;10.234;2023-04-22T01:00:18;97746.50;;;9.60;65.72
66880;BME280;53789;51.392;10.234;2023-04-22T01:00:39;97737.13;;;9.61;66.41
66880;BME280;53789;51.392;10.234;2023-04-22T01:00:59;97745.38;;;9.61;65.16
66880;BME280;53789;51.392;10.234;2023-04-22T01:01:20;97745.38;;;9.61;66.17
66880;BME280;53789;51.392;10.234;2023-04-22T01:01:41;97746.50;;;9.60;66.31
66880;BME280;53789;51.392;10.234;2023-04-22T01:02:02;97738.28;;;9.60;65.78
66880;BME280;53789;51.392;10.234;2023-04-22T01:02:23;97741.00;;;9.60;65.56
66880;BME280;53789;51.392;10.234;2023-04-22T01:02:44;97747.31;;;9.61;65.25
66880;BME280;53789;51.392;10.234;2023-04-22T01:03:05;97744.25;;;9.62;65.51
66880;BME280;53789;51.392;10.234;2023-04-22T01:03:26;97748.94;;;9.62;65.52
66880;BME280;53789;51.392;10.234;2023-04-22T01:03:49;97749.25;;;9.60;65.30
66880;BME280;53789;51.392;10.234;2023-04-22T01:04:09;97742.94;;;9.60;65.41
66880;BME280;53789;51.392;10.234;2023-04-22T01:04:30;97745.69;;;9.60;65.76
66880;BME280;53789;51.392;10.234;2023-04-22T01:04:51;97744.06;;;9.59;65.50
66880;BME280;53789;51.392;10.234;2023-04-22T01:05:12;97740.50;;;9.58;66.30
66880;BME280;53789;51.392;10.234;2023-04-22T01:05:33;97742.44;;;9.58;65.45
66880;BME280;53789;51.392;10.234;2023-04-22T01:05:53;97747.94;;;9.58;66.03
66880;BME280;53789;51.392;10.234;2023-04-22T01:06:16;97737.75;;;9.58;66.17
66880;BME280;53789;51.392;10.234;2023-04-22T01:06:38;97747.94;;;9.58;65.97
66880;BME280;53789;51.392;10.234;2023-04-22T01:07:00;97740.81;;;9.57;65.86
66880;BME280;53789;51.392;10.234;2023-04-22T01:07:20;97738.91;;;9.57;66.16
66880;BME280;53789;51.392;10.234;2023-04-22T01:07:41;97749.03;;;9.57;65.31
66880;BME280;53789;51.392;10.234;2023-04-22T01:08:01;97744.69;;;9.56;65.88
66880;BME280;53789;51.392;10.234;2023-04-22T01:08:27;97751.31;;;9.54;66.11
66880;BME280;53789;51.392;10.234;2023-04-22T01:08:48;97751.31;;;9.54;65.94
66880;BME280;53789;51.392;10.234;2023-04-22T01:09:08;97743.06;;;9.54;66.19
66880;BME280;53789;51.392;10.234;2023-04-22T01:09:29;97745.00;;;9.54;66.37
66880;BME280;53789;51.392;10.234;2023-04-22T01:09:50;97749.34;;;9.55;65.90
66880;BME280;53789;51.392;10.234;2023-04-22T01:10:10;97750.50;;;9.54;65.29
66880;BME280;53789;51.392;10.234;2023-04-22T01:10:30;97746.13;;;9.53;66.29
66880;BME280;53789;51.392;10.234;2023-04-22T01:10:51;97747.75;;;9.54;65.49
66880;BME280;53789;51.392;10.234;2023-04-22T01:11:12;97746.13;;;9.53;66.15
66880;BME280;53789;51.392;10.234;2023-04-22T01:11:34;97746.13;;;9.53;66.32
66880;BME280;53789;51.392;10.234;2023-04-22T01:11:55;97742.56;;;9.52;65.68
66880;BME280;53789;51.392;10.234;2023-04-22T01:12:15;97751.09;;;9.51;66.08
66880;BME280;53789;51.392;10.234;2023-04-22T01:12:35;97749.19;;;9.51;65.88
66880;BME280;53789;51.392;10.234;2023-04-22T01:12:56;97747.25;;;9.52;65.53
66880;BME280;53789;51.392;10.234;2023-04-22T01:13:16;97745.59;;;9.51;66.03
66880;BME280;53789;51.392;10.234;2023-04-22T01:13:36;97746.44;;;9.51;65.84
66880;BME280;53789;51.392;10.234;2023-04-22T01:13:57;97744.81;;;9.50;65.54
66880;BME280;53789;51.392;10.234;2023-04-22T01:14:17;97742.88;;;9.51;66.08
66880;BME280;53789;51.392;10.234;2023-04-22T01:14:38;97750.59;;;9.49;66.55
66880;BME280;53789;51.392;10.234;2023-04-22T01:14:59;97739.63;;;9.49;65.28
66880;BME280;53789;51.392;10.234;2023-04-22T01:15:19;97747.06;;;9.48;66.19
66880;BME280;53789;51.392;10.234;2023-04-22T01:15:40;97748.97;;;9.48;65.85
66880;BME280;53789;51.392;10.234;2023-04-22T01:16:01;97743.81;;;9.46;65.52
66880;BME280;53789;51.392;10.234;2023-04-22T01:16:21;97740.25;;;9.46;65.52
66880;BME280;53789;51.392;10.234;2023-04-22T01:16:44;97749.59;;;9.45;66.45
66880;BME280;53789;51.392;10.234;2023-04-22T01:17:04;97746.84;;;9.45;66.29
66880;BME280;53789;51.392;10.234;2023-04-22T01:17:24;97747.69;;;9.45;65.43
66880;BME280;53789;51.392;10.234;2023-04-22T01:17:45;97746.06;;;9.44;66.55
66880;BME280;53789;51.392;10.234;2023-04-22T01:18:06;97749.91;;;9.43;65.76
66880;BME280;53789;51.392;10.234;2023-04-22T01:18:26;97743.63;;;9.43;65.69
66880;BME280;53789;51.392;10.234;2023-04-22T01:18:47;97748.00;;;9.44;66.62
66880;BME280;53789;51.392;10.234;2023-04-22T01:19:07;97746.38;;;9.43;66.34
66880;BME280;53789;51.392;10.234;2023-04-22T01:19:27;97752.16;;;9.41;66.44
66880;BME280;53789;51.392;10.234;2023-04-22T01:19:48;97751.34;;;9.41;66.35
66880;BME280;53789;51.392;10.234;2023-04-22T01:20:09;97742.31;;;9.40;66.24
66880;BME280;53789;51.392;10.234;2023-04-22T01:20:29;97750.53;;;9.40;66.19
66880;BME280;53789;51.392;10.234;2023-04-22T01:20:50;97747.78;;;9.40;65.69
66880;BME280;53789;51.392;10.234;2023-04-22T01:21:10;97751.66;;;9.39;65.64
66880;BME280;53789;51.392;10.234;2023-04-22T01:21:31;97747.78;;;9.40;65.65
66880;BME280;53789;51.392;10.234;2023-04-22T01:21:53;97750.84;;;9.39;65.79
66880;BME280;53789;51.392;10.234;2023-04-22T01:22:14;97755.53;;;9.38;66.61
66880;BME280;53789;51.392;10.234;2023-04-22T01:22:40;97744.88;;;9.36;65.94
66880;BME280;53789;51.392;10.234;2023-04-22T01:23:02;97757.75;;;9.36;66.60
66880;BME280;53789;51.392;10.234;2023-04-22T01:23:22;97750.69;;;9.35;66.14
66880;BME280;53789;51.392;10.234;2023-04-22T01:23:43;97751.47;;;9.35;65.46
66880;BME280;53789;51.392;10.234;2023-04-22T01:24:03;97752.88;;;9.33;66.56
66880;BME280;53789;51.392;10.234;2023-04-22T01:24:24;97752.06;;;9.32;66.55
66880;BME280;53789;51.392;10.234;2023-04-22T01:24:45;97746.56;;;9.32;66.32
66880;BME280;53789;51.392;10.234;2023-04-22T01:25:06;97753.19;;;9.31;66.84
66880;BME280;53789;51.392;10.234;2023-04-22T01:25:26;97748.00;;;9.30;66.55
66880;BME280;53789;51.392;10.234;2023-04-22T01:25:47;97749.13;;;9.29;66.23
66880;BME280;53789;51.392;10.234;2023-04-22T01:26:08;97744.78;;;9.28;65.74
66880;BME280;53789;51.392;10.234;2023-04-22T01:26:29;97742.81;;;9.28;65.95
66880;BME280;53789;51.392;10.234;2023-04-22T01:26:49;97754.13;;;9.27;65.90
66880;BME280;53789;51.392;10.234;2023-04-22T01:27:10;97747.81;;;9.26;66.28
66880;BME280;53789;51.392;10.234;2023-04-22T01:27:31;97754.44;;;9.25;66.71
66880;BME280;53789;51.392;10.234;2023-04-22T01:27:52;97747.31;;;9.24;66.11
66880;BME280;53789;51.392;10.234;2023-04-22T01:28:14;97751.69;;;9.25;66.28
66880;BME280;53789;51.392;10.234;2023-04-22T01:28:34;97752.00;;;9.24;65.94
66880;BME280;53789;51.392;10.234;2023-04-22T01:28:55;97746.50;;;9.24;65.86
66880;BME280;53789;51.392;10.234;2023-04-22T01:29:16;97745.69;;;9.23;66.13
66880;BME280;53789;51.392;10.234;2023-04-22T01:29:36;97747.31;;;9.24;66.64
66880;BME280;53789;51.392;10.234;2023-04-22T01:29:57;97746.50;;;9.24;66.95
66880;BME280;53789;51.392;10.234;2023-04-22T01:30:17;97748.44;;;9.23;65.99
66880;BME280;53789;51.392;10.234;2023-04-22T01:30:38;97752.78;;;9.24;67.11
66880;BME280;53789;51.392;10.234;2023-04-22T01:30:59;97753.63;;;9.25;66.08
66880;BME280;53789;51.392;10.234;2023-04-22T01:31:19;97741.31;;;9.22;66.23
66880;BME280;53789;51.392;10.234;2023-04-22T01:31:40;97755.03;;;9.22;66.83
66880;BME280;53789;51.392;10.234;2023-04-22T01:32:02;97746.00;;;9.22;66.81
66880;BME280;53789;51.392;10.234;2023-04-22T01:32:23;97750.66;;;9.21;66.71
66880;BME280;53789;51.392;10.234;2023-04-22T01:32:43;97754.25;;;9.22;66.53
66880;BME280;53789;51.392;10.234;2023-04-22T01:33:04;97752.31;;;9.22;66.21
66880;BME280;53789;51.392;10.234;2023-04-22T01:33:24;97749.56;;;9.22;67.26
66880;BME280;53789;51.392;10.234;2023-04-22T01:33:45;97748.75;;;9.22;66.52
66880;BME280;53789;51.392;10.234;2023-04-22T01:34:06;97750.34;;;9.23;66.91
66880;BME280;53789;51.392;10.234;2023-04-22T01:34:27;97753.09;;;9.23;66.30
66880;BME280;53789;51.392;10.234;2023-04-22T01:34:47;97752.31;;;9.22;66.44
66880;BME280;53789;51.392;10.234;2023-04-22T01:35:09;97750.34;;;9.23;66.90
66880;BME280;53789;51.392;10.234;2023-04-22T01:35:29;97752.00;;;9.24;66.53
66880;BME280;53789;51.392;10.234;2023-04-22T01:35:50;97751.19;;;9.23;66.04
66880;BME280;53789;51.392;10.234;2023-04-22T01:36:11;97754.25;;;9.22;66.53
66880;BME280;53789;51.392;10.234;2023-04-22T01:36:32;97746.81;;;9.22;66.26
66880;BME280;53789;51.392;10.234;2023-04-22T01:36:52;97749.56;;;9.22;66.30
66880;BME280;53789;51.392;10.234;2023-04-22T01:37:13;97748.75;;;9.22;66.78
66880;BME280;53789;51.392;10.234;2023-04-22T01:37:34;97749.56;;;9.22;67.11
66880;BME280;53789;51.392;10.234;2023-04-22T01:37:54;97757.00;;;9.22;65.89
66880;BME280;53789;51.392;10.234;2023-04-22T01:38:15;97752.59;;;9.20;66.07
66880;BME280;53789;51.392;10.234;2023-04-22T01:38:35;97754.25;;;9.22;66.99
66880;BME280;53789;51.392;10.234;2023-04-22T01:38:56;97749.06;;;9.20;66.15
66880;BME280;53789;51.392;10.234;2023-04-22T01:39:16;97754.56;;;9.20;66.49
66880;BME280;53789;51.392;10.234;2023-04-22T01:39:38;97749.06;;;9.20;67.36
66880;BME280;53789;51.392;10.234;2023-04-22T01:39:59;97750.19;;;9.19;66.81
66880;BME280;53789;51.392;10.234;2023-04-22T01:40:19;97746.63;;;9.18;66.33
66880;BME280;53789;51.392;10.234;2023-04-22T01:40:41;97748.53;;;9.18;66.82
66880;BME280;53789;51.392;10.234;2023-04-22T01:41:02;97752.41;;;9.17;66.55
66880;BME280;53789;51.392;10.234;2023-04-22T01:41:23;97755.16;;;9.17;67.09
66880;BME280;53789;51.392;10.234;2023-04-22T01:41:43;97745.31;;;9.16;66.77
66880;BME280;53789;51.392;10.234;2023-04-22T01:42:04;97748.06;;;9.16;66.13
66880;BME280;53789;51.392;10.234;2023-04-22T01:42:25;97740.94;;;9.15;66.45
66880;BME280;53789;51.392;10.234;2023-04-22T01:42:45;97744.47;;;9.15;66.37
66880;BME280;53789;51.392;10.234;2023-04-22T01:43:06;97746.41;;;9.15;67.04
66880;BME280;53789;51.392;10.234;2023-04-22T01:43:26;97747.53;;;9.14;66.25
66880;BME280;53789;51.392;10.234;2023-04-22T01:43:48;97745.63;;;9.14;66.96
66880;BME280;53789;51.392;10.234;2023-04-22T01:44:08;97744.00;;;9.13;67.11
66880;BME280;53789;51.392;10.234;2023-04-22T01:44:29;97750.59;;;9.12;66.48
66880;BME280;53789;51.392;10.234;2023-04-22T01:44:49;97746.25;;;9.11;66.73
66880;BME280;53789;51.392;10.234;2023-04-22T01:45:10;97747.03;;;9.12;66.40
66880;BME280;53789;51.392;10.234;2023-04-22T01:45:30;97743.50;;;9.11;66.54
66880;BME280;53789;51.392;10.234;2023-04-22T01:45:51;97746.25;;;9.11;67.24
66880;BME280;53789;51.392;10.234;2023-04-22T01:46:11;97750.91;;;9.11;66.31
66880;BME280;53789;51.392;10.234;2023-04-22T01:46:32;97744.59;;;9.10;66.13
66880;BME280;53789;51.392;10.234;2023-04-22T01:46:53;97752.03;;;9.10;67.13
66880;BME280;53789;51.392;10.234;2023-04-22T01:47:13;97747.66;;;9.09;66.29
66880;BME280;53789;51.392;10.234;2023-04-22T01:47:34;97745.22;;;9.07;66.97
66880;BME280;53789;51.392;10.234;2023-04-22T01:47:54;97740.06;;;9.06;67.17
66880;BME280;53789;51.392;10.234;2023-04-22T01:48:15;97741.97;;;9.05;66.22
66880;BME280;53789;51.392;10.234;2023-04-22T01:48:36;97744.22;;;9.03;67.50
66880;BME280;53789;51.392;10.234;2023-04-22T01:48:57;97745.03;;;9.03;66.68
66880;BME280;53789;51.392;10.234;2023-04-22T01:49:17;97746.97;;;9.03;67.08